Time;durP1;ratioP1;P1;durP2;ratioP2;P2;SDS_P1;SDS_P2;PMS_P1;PMS_P2;Temp;Humidity;BMP_temperature;BMP_pressure;BME280_temperature;BME280_humidity;BME280_pressure;Samples;Min_cycle;Max_cycle;Signal;HPM_P1;HPM_P2
2021/12/24 00:00:51;;;;;;;3.05;1.65;;;7.10;99.90;;;;;;4999976;28;20513;-75
2021/12/24 00:03:17;;;;;;;4.88;2.10;;;7.10;99.90;;;;;;4999897;28;20040;-75
2021/12/24 00:05:44;;;;;;;5.47;2.17;;;7.10;99.90;;;;;;5001617;28;20034;-76
2021/12/24 00:08:09;;;;;;;3.83;2.20;;;7.20;99.90;;;;;;5002908;28;20037;-75
2021/12/24 00:10:37;;;;;;;6.82;3.13;;;7.20;99.90;;;;;;5005429;28;20398;-76
2021/12/24 00:13:08;;;;;;;6.78;3.60;;;7.10;99.90;;;;;;4972868;28;20111;-75
2021/12/24 00:18:26;;;;;;;6.25;2.90;;;7.10;99.90;;;;;;5003562;28;20115;-75
2021/12/24 00:36:53;;;;;;;;;;;7.60;99.90;;;;;;4998639;28;20414;-76
2021/12/24 00:39:18;;;;;;;4.57;1.63;;;7.60;99.90;;;;;;4995295;28;19909;-75
2021/12/24 00:41:45;;;;;;;4.55;2.50;;;7.60;99.90;;;;;;4987366;28;20091;-76
2021/12/24 00:44:10;;;;;;;4.80;1.90;;;7.50;99.90;;;;;;4981683;28;20029;-76
2021/12/24 00:46:37;;;;;;;3.88;1.67;;;7.60;99.90;;;;;;5006651;28;20030;-75
2021/12/24 00:49:03;;;;;;;3.28;2.03;;;7.60;99.90;;;;;;5003560;28;20105;-75
2021/12/24 00:51:42;;;;;;;5.85;1.67;;;7.80;99.90;;;;;;5003192;28;20225;-76
2021/12/24 00:56:53;;;;;;;3.83;1.83;;;7.90;99.90;;;;;;5001843;28;20029;-75
2021/12/24 00:59:18;;;;;;;3.53;1.80;;;7.90;99.90;;;;;;5005275;28;20030;-75
2021/12/24 01:01:44;;;;;;;4.10;1.90;;;7.90;99.90;;;;;;5009119;28;20494;-75
2021/12/24 01:04:10;;;;;;;3.58;1.48;;;7.90;99.90;;;;;;5005415;28;20030;-75
2021/12/24 01:06:35;;;;;;;3.75;2.00;;;7.90;99.90;;;;;;5001489;28;20027;-76
2021/12/24 01:09:01;;;;;;;5.68;2.63;;;7.90;99.90;;;;;;5004402;28;20104;-75
2021/12/24 01:11:27;;;;;;;6.50;2.13;;;7.90;99.90;;;;;;5006114;28;20376;-76
2021/12/24 01:13:53;;;;;;;2.85;1.77;;;7.90;99.90;;;;;;4998961;28;20061;-76
2021/12/24 01:16:29;;;;;;;5.10;1.75;;;8.00;99.90;;;;;;4990134;28;20034;-75
2021/12/24 01:19:07;;;;;;;2.47;1.30;;;8.00;99.90;;;;;;5003413;28;20402;-76
2021/12/24 01:24:05;;;;;;;3.42;1.48;;;8.20;99.90;;;;;;5005145;28;20026;-76
2021/12/24 01:29:30;;;;;;;1.65;1.17;;;8.30;99.90;;;;;;4998315;28;20546;-76
2021/12/24 01:42:47;;;;;;;2.72;1.33;;;8.50;99.90;;;;;;5031649;28;20068;-76
2021/12/24 01:45:34;;;;;;;4.25;1.50;;;8.50;99.90;;;;;;5011897;28;20113;-76
2021/12/24 01:48:07;;;;;;;2.80;1.50;;;8.50;99.90;;;;;;5023623;28;20132;-76
2021/12/24 01:50:35;;;;;;;6.33;1.27;;;8.60;99.90;;;;;;4998036;28;20486;-76
2021/12/24 01:53:05;;;;;;;2.58;1.27;;;8.70;99.90;;;;;;5005633;28;20022;-76
2021/12/24 01:55:31;;;;;;;3.17;1.17;;;8.70;99.90;;;;;;5005889;28;20049;-76
2021/12/24 01:57:57;;;;;;;2.03;1.20;;;8.70;99.90;;;;;;5027210;28;20056;-76
2021/12/24 02:00:27;;;;;;;3.28;1.40;;;8.70;99.90;;;;;;5026349;28;20025;-76
2021/12/24 02:02:53;;;;;;;2.90;1.00;;;8.80;99.90;;;;;;5024947;28;20079;-76
2021/12/24 02:05:20;;;;;;;4.78;1.40;;;8.80;99.90;;;;;;5003239;28;20029;-76
2021/12/24 02:07:46;;;;;;;3.08;1.05;;;8.80;99.90;;;;;;5026673;28;20021;-76
2021/12/24 02:10:15;;;;;;;3.50;1.30;;;8.90;99.90;;;;;;5008934;28;20990;-76
2021/12/24 02:12:41;;;;;;;2.47;1.40;;;8.90;99.90;;;;;;5013942;28;20120;-76
2021/12/24 02:15:14;;;;;;;3.50;1.10;;;9.00;99.90;;;;;;5012744;28;20112;-76
2021/12/24 02:28:39;;;;;;;2.03;1.30;;;8.70;99.90;;;;;;5024939;28;19916;-76
2021/12/24 02:31:22;;;;;;;2.90;1.33;;;8.70;99.90;;;;;;5029915;28;20084;-76
2021/12/24 02:33:48;;;;;;;2.70;1.20;;;8.70;99.90;;;;;;5026382;28;20449;-76
2021/12/24 02:36:14;;;;;;;2.83;1.25;;;8.60;99.90;;;;;;5025287;28;20496;-76
2021/12/24 02:38:41;;;;;;;3.05;0.98;;;8.60;99.90;;;;;;5027356;28;20738;-76
2021/12/24 02:41:08;;;;;;;4.15;1.25;;;8.50;99.90;;;;;;5008904;28;20034;-76
2021/12/24 02:43:34;;;;;;;2.72;1.02;;;8.50;99.90;;;;;;5026438;28;20041;-76
2021/12/24 02:46:08;;;;;;;3.28;1.33;;;8.50;99.90;;;;;;5023237;28;20037;-76
2021/12/24 02:54:01;;;;;;;1.75;1.10;;;8.50;99.90;;;;;;5027301;28;20032;-76
2021/12/24 02:56:32;;;;;;;4.45;1.63;;;8.40;99.90;;;;;;5025581;28;20021;-76
2021/12/24 02:59:02;;;;;;;2.90;1.58;;;8.50;99.90;;;;;;5020968;28;20432;-76
2021/12/24 03:01:34;;;;;;;2.88;1.67;;;8.40;99.90;;;;;;5011954;28;20030;-76
2021/12/24 03:04:01;;;;;;;4.43;1.67;;;8.40;99.90;;;;;;5024507;28;20130;-76
2021/12/24 03:06:29;;;;;;;1.83;0.93;;;8.30;99.90;;;;;;5028875;28;20504;-76
2021/12/24 03:08:56;;;;;;;2.50;1.50;;;8.30;99.90;;;;;;5022290;28;20037;-76
2021/12/24 03:11:23;;;;;;;2.75;1.63;;;8.30;99.90;;;;;;5030058;28;20051;-76
2021/12/24 03:13:50;;;;;;;2.95;1.52;;;8.20;99.90;;;;;;5025207;28;20048;-76
2021/12/24 03:16:16;;;;;;;3.80;1.33;;;8.20;99.90;;;;;;5026893;28;20112;-76
2021/12/24 03:18:43;;;;;;;2.42;1.10;;;8.20;99.90;;;;;;5029513;28;20031;-76
2021/12/24 03:21:17;;;;;;;3.72;1.45;;;8.20;99.90;;;;;;5031055;28;20017;-76
2021/12/24 03:24:33;;;;;;;1.60;1.20;;;8.20;99.90;;;;;;5025012;28;20384;-76
2021/12/24 03:26:34;;;;;;;4.85;1.63;;;8.10;99.90;;;;;;5029254;28;20037;-76
2021/12/24 03:29:00;;;;;;;3.00;1.55;;;8.20;99.90;;;;;;5024298;28;20215;-76
2021/12/24 03:31:26;;;;;;;3.35;1.60;;;8.20;99.90;;;;;;5021231;28;20485;-76
2021/12/24 03:33:53;;;;;;;2.83;1.38;;;8.20;99.90;;;;;;5020728;28;20033;-76
2021/12/24 03:36:20;;;;;;;2.85;1.50;;;8.30;99.90;;;;;;5027370;28;20048;-76
2021/12/24 03:38:46;;;;;;;2.47;1.50;;;8.20;99.90;;;;;;5031286;28;20440;-76
2021/12/24 03:41:12;;;;;;;2.50;1.50;;;8.20;99.90;;;;;;5025411;28;20025;-76
2021/12/24 03:43:38;;;;;;;1.85;1.33;;;8.30;99.90;;;;;;5020755;28;20474;-76
2021/12/24 03:46:11;;;;;;;3.97;1.95;;;8.20;99.90;;;;;;5024336;28;20025;-76
2021/12/24 03:56:28;;;;;;;2.75;1.67;;;8.20;99.90;;;;;;5028015;28;22706;-76
2021/12/24 03:58:54;;;;;;;3.95;2.05;;;8.20;99.90;;;;;;5024091;28;20036;-76
2021/12/24 04:01:20;;;;;;;3.25;1.55;;;8.20;99.90;;;;;;5019410;28;20014;-76
2021/12/24 04:03:45;;;;;;;3.70;1.70;;;8.20;99.90;;;;;;5025722;28;20080;-76
2021/12/24 04:06:11;;;;;;;4.15;1.77;;;8.20;99.90;;;;;;5027177;28;20038;-76
2021/12/24 04:08:37;;;;;;;3.55;1.80;;;8.20;99.90;;;;;;5026745;28;20084;-76
2021/12/24 04:11:04;;;;;;;3.95;1.85;;;8.30;99.90;;;;;;5008253;28;20029;-76
2021/12/24 04:13:30;;;;;;;4.13;1.75;;;8.20;99.90;;;;;;5021292;28;20033;-76
2021/12/24 04:15:56;;;;;;;4.22;1.80;;;8.20;99.90;;;;;;5026393;28;20030;-76
2021/12/24 04:18:40;;;;;;;3.38;1.95;;;8.20;99.90;;;;;;5021405;28;20104;-76
2021/12/24 04:26:36;;;;;;;3.53;2.05;;;8.10;99.90;;;;;;5025544;28;20521;-76
2021/12/24 04:29:02;;;;;;;5.10;2.17;;;8.10;99.90;;;;;;5029413;28;20033;-76
2021/12/24 04:31:38;;;;;;;3.60;2.20;;;8.00;99.90;;;;;;5013369;28;20025;-76
2021/12/24 04:34:06;;;;;;;4.05;1.85;;;8.00;99.90;;;;;;5031077;28;20037;-76
2021/12/24 05:03:24;;;;;;;4.68;1.70;;;7.70;99.90;;;;;;5041995;28;20060;-76
2021/12/24 05:05:55;;;;;;;4.03;1.55;;;7.60;99.90;;;;;;5034576;28;20378;-76
2021/12/24 05:08:26;;;;;;;6.10;2.13;;;7.60;99.90;;;;;;5044290;28;20098;-76
2021/12/24 05:10:52;;;;;;;4.35;2.22;;;7.70;99.90;;;;;;5035587;28;20539;-76
2021/12/24 05:13:20;;;;;;;5.43;1.73;;;7.70;99.90;;;;;;5026598;28;20061;-77
2021/12/24 05:15:49;;;;;;;5.60;1.80;;;7.70;99.90;;;;;;5029111;28;20029;-77
2021/12/24 05:23:44;;;;;;;2.72;1.98;;;7.70;99.90;;;;;;5040435;28;20087;-77
2021/12/24 05:26:10;;;;;;;4.40;2.17;;;7.80;99.90;;;;;;5035977;28;20021;-76
2021/12/24 05:28:38;;;;;;;3.45;1.85;;;7.80;99.90;;;;;;5030541;28;20480;-77
2021/12/24 05:31:04;;;;;;;2.47;1.50;;;7.90;99.90;;;;;;5031796;28;20040;-76
2021/12/24 05:33:29;;;;;;;3.17;2.03;;;7.90;99.90;;;;;;5029738;28;20037;-77
2021/12/24 05:35:55;;;;;;;5.70;2.20;;;7.90;99.90;;;;;;5024148;28;20064;-77
2021/12/24 05:38:21;;;;;;;5.80;2.05;;;7.90;99.90;;;;;;5024243;28;20561;-77
2021/12/24 05:40:47;;;;;;;4.05;1.92;;;7.90;99.90;;;;;;5031354;28;20028;-77
2021/12/24 05:43:12;;;;;;;3.45;1.50;;;7.90;99.90;;;;;;5028778;28;20558;-79
2021/12/24 05:45:38;;;;;;;4.05;1.88;;;7.90;99.90;;;;;;5032135;28;20432;-77
2021/12/24 05:48:04;;;;;;;4.80;1.73;;;7.90;99.90;;;;;;5022383;28;20425;-77
2021/12/24 05:50:30;;;;;;;3.63;1.83;;;7.90;99.90;;;;;;5012115;28;20143;-78
2021/12/24 05:52:56;;;;;;;4.28;1.90;;;7.90;99.90;;;;;;5028106;28;20261;-77
2021/12/24 05:55:21;;;;;;;6.57;2.20;;;7.90;99.90;;;;;;5022389;28;20481;-76
2021/12/24 05:57:47;;;;;;;5.95;2.38;;;8.00;99.90;;;;;;5022078;28;20041;-76
2021/12/24 06:00:14;;;;;;;4.82;2.28;;;8.00;99.90;;;;;;5006443;28;20035;-76
2021/12/24 06:02:40;;;;;;;4.65;2.40;;;8.00;99.90;;;;;;5021873;28;20121;-78
2021/12/24 06:05:09;;;;;;;3.22;1.75;;;8.20;99.90;;;;;;5024449;28;20537;-79
2021/12/24 06:07:35;;;;;;;4.78;1.95;;;8.60;99.90;;;;;;5022917;28;20029;-79
2021/12/24 06:10:01;;;;;;;4.75;1.92;;;8.60;99.90;;;;;;5009450;28;20099;-79
2021/12/24 06:12:27;;;;;;;4.18;1.92;;;8.70;99.90;;;;;;5023043;28;20087;-76
2021/12/24 06:14:55;;;;;;;3.28;2.03;;;8.70;99.90;;;;;;5022413;28;20096;-75
2021/12/24 06:17:23;;;;;;;5.55;2.08;;;8.60;99.90;;;;;;5028588;28;20482;-75
2021/12/24 06:19:49;;;;;;;3.33;1.73;;;8.50;99.90;;;;;;5019578;28;20505;-76
2021/12/24 06:22:15;;;;;;;4.88;2.10;;;8.40;99.90;;;;;;5023958;28;20021;-76
2021/12/24 06:24:41;;;;;;;4.55;2.17;;;8.30;99.90;;;;;;5028263;28;20017;-76
2021/12/24 06:27:07;;;;;;;3.10;1.42;;;8.30;99.90;;;;;;5027126;28;20108;-76
2021/12/24 06:29:33;;;;;;;4.55;1.70;;;8.20;99.90;;;;;;5024368;28;20088;-77
2021/12/24 06:31:58;;;;;;;6.72;2.35;;;8.20;99.90;;;;;;5027674;28;20029;-76
2021/12/24 06:34:26;;;;;;;4.65;2.20;;;8.10;99.90;;;;;;5028402;28;20041;-76
2021/12/24 06:36:53;;;;;;;2.67;1.67;;;8.10;99.90;;;;;;5031965;28;20021;-76
2021/12/24 06:39:19;;;;;;;4.35;1.90;;;8.10;99.90;;;;;;5023771;28;20375;-77
2021/12/24 06:41:45;;;;;;;3.83;1.80;;;8.10;99.90;;;;;;5026110;28;20490;-77
2021/12/24 06:44:12;;;;;;;4.57;2.22;;;8.10;99.90;;;;;;5025085;28;20023;-77
2021/12/24 06:46:40;;;;;;;3.53;1.75;;;8.10;99.90;;;;;;5031850;28;20022;-77
2021/12/24 06:49:07;;;;;;;4.97;2.47;;;8.10;99.90;;;;;;5028244;28;20405;-77
2021/12/24 06:51:32;;;;;;;6.05;3.78;;;8.00;99.90;;;;;;5003240;28;20449;-77
2021/12/24 06:53:58;;;;;;;4.28;2.08;;;8.00;99.90;;;;;;5025529;28;20057;-77
2021/12/24 06:56:24;;;;;;;3.47;2.17;;;8.00;99.90;;;;;;5008382;28;20456;-76
2021/12/24 06:58:50;;;;;;;6.32;2.38;;;8.00;99.90;;;;;;5012795;28;20021;-76
2021/12/24 07:01:18;;;;;;;3.28;1.90;;;8.00;99.90;;;;;;5033295;28;20675;-77
2021/12/24 07:03:43;;;;;;;4.97;2.10;;;8.00;99.90;;;;;;5044643;28;20025;-77
2021/12/24 07:06:09;;;;;;;3.95;1.85;;;8.00;99.90;;;;;;5028684;28;20029;-77
2021/12/24 07:08:35;;;;;;;4.80;1.95;;;8.00;99.90;;;;;;5035598;28;20041;-76
2021/12/24 07:11:01;;;;;;;2.80;1.70;;;8.00;99.90;;;;;;5026816;28;20535;-76
2021/12/24 07:13:27;;;;;;;5.35;1.73;;;8.00;99.90;;;;;;5024498;28;20029;-76
2021/12/24 07:15:53;;;;;;;4.32;1.98;;;8.00;99.90;;;;;;5006150;28;20029;-76
2021/12/24 07:18:19;;;;;;;3.53;1.80;;;8.00;99.90;;;;;;5026016;28;20022;-76
2021/12/24 07:20:45;;;;;;;3.58;1.70;;;8.00;99.90;;;;;;5022317;28;20029;-77
2021/12/24 07:23:10;;;;;;;4.68;2.28;;;8.00;99.90;;;;;;5006532;28;20397;-77
2021/12/24 07:25:36;;;;;;;4.03;1.88;;;8.10;99.90;;;;;;5021279;28;20049;-76
2021/12/24 07:28:02;;;;;;;4.20;2.08;;;8.00;99.90;;;;;;5021742;28;20029;-76
2021/12/24 07:30:29;;;;;;;3.55;1.75;;;8.10;99.90;;;;;;5023220;28;20371;-77
2021/12/24 07:32:55;;;;;;;3.08;1.80;;;8.10;99.90;;;;;;5024859;28;20080;-79
2021/12/24 07:35:21;;;;;;;2.80;1.50;;;8.10;99.90;;;;;;5037991;22;20129;-75
2021/12/24 07:37:47;;;;;;;6.15;2.30;;;8.10;99.90;;;;;;5028603;28;20114;-75
2021/12/24 07:40:16;;;;;;;4.18;2.15;;;8.10;99.90;;;;;;5032507;28;20489;-75
2021/12/24 07:42:46;;;;;;;3.97;2.30;;;8.00;99.90;;;;;;5031726;28;20044;-75
2021/12/24 07:45:15;;;;;;;5.57;2.45;;;8.00;99.90;;;;;;5032799;28;20078;-75
2021/12/24 07:47:43;;;;;;;4.28;2.70;;;8.00;99.90;;;;;;5029037;28;20120;-75
2021/12/24 07:52:54;;;;;;;3.97;2.30;;;8.00;99.90;;;;;;5035841;28;20116;-74
2021/12/24 07:55:20;;;;;;;4.43;2.13;;;7.90;99.90;;;;;;5011249;28;20434;-75
2021/12/24 07:57:49;;;;;;;4.72;2.25;;;7.90;99.90;;;;;;5010777;28;20032;-74
2021/12/24 08:00:16;;;;;;;3.97;2.13;;;7.90;99.90;;;;;;5030631;28;20030;-74
2021/12/24 08:02:42;;;;;;;3.17;2.08;;;7.90;99.90;;;;;;5015186;28;20164;-73
2021/12/24 08:05:08;;;;;;;5.47;2.42;;;7.80;99.90;;;;;;5030360;28;20022;-73
2021/12/24 08:07:34;;;;;;;4.22;2.00;;;7.90;99.90;;;;;;5016118;28;20033;-73
2021/12/24 08:10:00;;;;;;;3.22;1.90;;;7.80;99.90;;;;;;5033070;28;20354;-73
2021/12/24 08:12:25;;;;;;;4.32;2.10;;;7.80;99.90;;;;;;5031582;28;20041;-74
2021/12/24 08:14:51;;;;;;;4.30;2.33;;;7.80;99.90;;;;;;5023671;28;20026;-74
2021/12/24 08:17:17;;;;;;;5.38;3.10;;;7.80;99.90;;;;;;5020831;28;20034;-74
2021/12/24 08:19:43;;;;;;;4.55;2.83;;;7.80;99.90;;;;;;5026308;28;20053;-73
2021/12/24 08:22:10;;;;;;;6.35;2.95;;;7.80;99.90;;;;;;5012290;28;20074;-74
2021/12/24 08:24:36;;;;;;;7.50;3.40;;;7.80;99.90;;;;;;5018472;28;20485;-74
2021/12/24 08:27:02;;;;;;;6.18;3.15;;;7.80;99.90;;;;;;5015099;28;20037;-74
2021/12/24 08:29:28;;;;;;;7.28;3.25;;;7.80;99.90;;;;;;5024249;28;20045;-74
2021/12/24 08:31:54;;;;;;;7.55;3.63;;;7.80;99.90;;;;;;5033207;28;20390;-73
2021/12/24 08:34:23;;;;;;;6.82;3.08;;;7.80;99.90;;;;;;5031286;28;20486;-73
2021/12/24 08:36:51;;;;;;;7.60;3.60;;;7.70;99.90;;;;;;5032148;28;20100;-73
2021/12/24 08:39:19;;;;;;;5.60;4.18;;;7.80;99.90;;;;;;5031823;28;20109;-73
2021/12/24 08:41:46;;;;;;;9.75;3.83;;;7.80;99.90;;;;;;5030011;28;20104;-73
2021/12/24 08:44:12;;;;;;;11.07;3.72;;;7.70;99.90;;;;;;5031863;28;20022;-73
2021/12/24 08:46:38;;;;;;;8.52;4.00;;;7.70;99.90;;;;;;5015835;28;20482;-72
2021/12/24 08:49:05;;;;;;;9.32;4.10;;;7.70;99.90;;;;;;5032665;28;20029;-73
2021/12/24 08:51:31;;;;;;;7.70;3.90;;;7.70;99.90;;;;;;5013607;28;20694;-73
2021/12/24 08:53:57;;;;;;;11.10;4.35;;;7.70;99.90;;;;;;5027941;28;20030;-72
2021/12/24 08:56:23;;;;;;;10.27;4.75;;;7.70;99.90;;;;;;5026892;28;20030;-73
2021/12/24 08:58:50;;;;;;;7.50;4.00;;;7.70;99.90;;;;;;5025813;28;20025;-73
2021/12/24 09:01:16;;;;;;;8.60;4.03;;;7.70;99.90;;;;;;5028220;28;20105;-73
2021/12/24 09:03:41;;;;;;;8.48;4.18;;;7.70;99.90;;;;;;5014275;28;20022;-73
2021/12/24 09:06:07;;;;;;;21.08;10.05;;;7.70;99.90;;;;;;5031408;28;20112;-73
2021/12/24 09:08:34;;;;;;;10.38;6.68;;;7.70;99.90;;;;;;5033256;28;20026;-73
2021/12/24 09:11:00;;;;;;;10.18;6.45;;;7.70;99.90;;;;;;5010836;28;20025;-73
2021/12/24 09:13:26;;;;;;;21.55;13.13;;;7.80;99.90;;;;;;5032878;28;20441;-74
2021/12/24 09:15:53;;;;;;;18.35;10.77;;;7.80;99.90;;;;;;5028026;28;20029;-73
2021/12/24 09:18:20;;;;;;;21.88;14.15;;;7.80;99.90;;;;;;5022093;28;20033;-73
2021/12/24 09:20:46;;;;;;;19.23;10.60;;;7.80;99.90;;;;;;5027941;28;20033;-73
2021/12/24 09:23:12;;;;;;;21.10;11.90;;;7.80;99.90;;;;;;5032140;28;20095;-73
2021/12/24 09:25:40;;;;;;;14.25;6.95;;;7.80;99.90;;;;;;5030159;28;20036;-73
2021/12/24 09:28:06;;;;;;;16.27;7.00;;;7.90;99.90;;;;;;4998042;28;20080;-73
2021/12/24 09:30:33;;;;;;;17.75;8.82;;;7.90;99.90;;;;;;5032740;28;20026;-72
2021/12/24 09:32:58;;;;;;;17.17;7.57;;;7.90;99.90;;;;;;5031817;28;20409;-73
2021/12/24 09:35:26;;;;;;;14.85;7.88;;;7.90;99.90;;;;;;5015253;28;20037;-73
2021/12/24 09:37:52;;;;;;;21.73;10.52;;;7.90;99.90;;;;;;5031482;28;20021;-72
2021/12/24 09:40:18;;;;;;;17.13;10.02;;;7.90;99.90;;;;;;5038292;28;20095;-73
2021/12/24 09:42:45;;;;;;;16.02;8.95;;;7.90;99.90;;;;;;5029562;28;20109;-73
2021/12/24 09:45:11;;;;;;;19.48;9.07;;;7.90;99.90;;;;;;5032148;28;20044;-73
2021/12/24 09:47:37;;;;;;;32.85;11.60;;;7.90;99.90;;;;;;5028614;28;20037;-74
2021/12/24 09:50:06;;;;;;;22.77;10.43;;;7.90;99.90;;;;;;5029738;28;20040;-73
2021/12/24 09:52:32;;;;;;;24.02;11.18;;;7.90;99.90;;;;;;5031165;28;20021;-74
2021/12/24 09:55:10;;;;;;;19.25;9.52;;;7.90;99.90;;;;;;5014637;28;20374;-74
2021/12/24 09:57:36;;;;;;;20.55;8.38;;;7.90;99.90;;;;;;5032988;28;20036;-74
2021/12/24 10:00:04;;;;;;;9.35;5.15;;;7.90;99.90;;;;;;5032572;28;20105;-75
2021/12/24 10:02:43;;;;;;;10.80;6.25;;;7.90;99.90;;;;;;5033198;28;20026;-75
2021/12/24 10:05:22;;;;;;;30.40;14.68;;;7.90;99.90;;;;;;5030218;28;20091;-75
2021/12/24 10:07:48;;;;;;;55.55;26.15;;;7.90;99.90;;;;;;5031807;28;20116;-74
2021/12/24 10:10:20;;;;;;;14.63;7.13;;;7.90;99.90;;;;;;5031397;28;20574;-75
2021/12/24 10:12:46;;;;;;;11.75;4.70;;;8.00;99.90;;;;;;5029185;28;20090;-74
2021/12/24 10:15:12;;;;;;;6.60;2.70;;;8.00;99.90;;;;;;5033162;28;20036;-73
2021/12/24 10:17:38;;;;;;;4.88;1.92;;;8.00;99.90;;;;;;5031611;28;20038;-74
2021/12/24 10:20:16;;;;;;;6.57;1.95;;;8.00;99.90;;;;;;5015087;28;20065;-74
2021/12/24 10:22:54;;;;;;;6.95;2.22;;;8.00;99.90;;;;;;5031175;28;20093;-75
2021/12/24 10:25:28;;;;;;;5.10;1.60;;;8.00;99.90;;;;;;5032493;28;20409;-75
2021/12/24 10:27:54;;;;;;;9.07;1.63;;;8.00;99.90;;;;;;5025868;28;20030;-75
2021/12/24 10:30:23;;;;;;;6.88;1.98;;;8.00;99.90;;;;;;5014620;28;20025;-74
2021/12/24 10:32:50;;;;;;;4.75;1.88;;;8.00;99.90;;;;;;5027907;28;20028;-74
2021/12/24 10:35:24;;;;;;;4.00;1.52;;;8.00;99.90;;;;;;5028307;28;20044;-74
2021/12/24 10:38:09;;;;;;;2.00;1.30;;;8.00;99.90;;;;;;5015685;28;20025;-73
2021/12/24 10:40:34;;;;;;;2.70;1.55;;;8.00;99.90;;;;;;5016861;28;20030;-74
2021/12/24 10:43:00;;;;;;;4.63;1.58;;;8.00;99.90;;;;;;5028965;28;20120;-74
2021/12/24 10:45:35;;;;;;;3.38;1.40;;;8.00;99.90;;;;;;5031165;28;20034;-73
2021/12/24 10:48:17;;;;;;;2.63;1.35;;;8.00;99.90;;;;;;5029470;28;20486;-74
2021/12/24 10:50:50;;;;;;;4.25;1.63;;;7.90;99.90;;;;;;5028660;28;20108;-74
2021/12/24 10:53:19;;;;;;;2.20;1.30;;;7.90;99.90;;;;;;5028273;28;20051;-74
2021/12/24 10:55:55;;;;;;;3.70;1.30;;;8.00;99.90;;;;;;5031876;28;20021;-75
2021/12/24 10:58:23;;;;;;;4.95;1.95;;;8.00;99.90;;;;;;5009659;28;20057;-74
2021/12/24 11:00:55;;;;;;;2.17;1.50;;;8.00;99.90;;;;;;5027968;28;20061;-74
2021/12/24 11:03:24;;;;;;;3.33;1.60;;;8.00;99.90;;;;;;5032729;28;20029;-74
2021/12/24 11:06:10;;;;;;;3.00;1.48;;;8.00;99.90;;;;;;5033070;28;20061;-74
2021/12/24 11:08:37;;;;;;;2.92;1.00;;;8.00;99.90;;;;;;5032533;28;20029;-73
2021/12/24 11:11:06;;;;;;;3.80;1.67;;;8.00;99.90;;;;;;5032499;28;20021;-74
2021/12/24 11:13:41;;;;;;;1.85;1.20;;;8.00;99.90;;;;;;5032973;28;20378;-74
2021/12/24 11:16:16;;;;;;;3.65;1.30;;;8.00;99.90;;;;;;5032247;28;20065;-74
2021/12/24 11:18:46;;;;;;;3.13;1.30;;;8.00;99.90;;;;;;5032346;28;20052;-74
2021/12/24 11:21:20;;;;;;;2.92;1.50;;;8.00;99.90;;;;;;5033153;28;20086;-74
2021/12/24 11:23:46;;;;;;;12.20;5.03;;;8.10;99.90;;;;;;5029883;28;20412;-75
2021/12/24 11:26:17;;;;;;;9.25;4.65;;;8.10;99.90;;;;;;5031919;28;20021;-74
2021/12/24 11:28:43;;;;;;;5.95;2.67;;;8.10;99.90;;;;;;5031084;28;20072;-73
2021/12/24 11:31:15;;;;;;;6.50;3.50;;;8.10;99.90;;;;;;5032330;28;20025;-74
2021/12/24 11:33:44;;;;;;;6.20;3.25;;;8.20;99.90;;;;;;5013491;28;20112;-73
2021/12/24 11:36:13;;;;;;;6.10;3.08;;;8.20;99.90;;;;;;5026617;28;20025;-73
2021/12/24 11:38:45;;;;;;;3.83;2.08;;;8.20;99.90;;;;;;5017872;28;20513;-74
2021/12/24 11:41:14;;;;;;;3.20;1.60;;;8.30;99.90;;;;;;5012265;28;20037;-75
2021/12/24 11:43:42;;;;;;;4.82;1.58;;;8.30;99.90;;;;;;5027465;28;20133;-75
2021/12/24 11:46:15;;;;;;;3.42;1.42;;;8.30;99.90;;;;;;5016453;28;20036;-75
2021/12/24 11:48:43;;;;;;;3.92;2.05;;;8.40;99.90;;;;;;5010863;28;20034;-74
2021/12/24 11:51:14;;;;;;;4.00;1.67;;;8.40;99.90;;;;;;5015831;28;20044;-75
2021/12/24 11:53:41;;;;;;;4.38;1.92;;;8.40;99.90;;;;;;5010705;28;20631;-74
2021/12/24 11:56:09;;;;;;;4.15;2.05;;;8.40;99.90;;;;;;5029654;28;20532;-73
2021/12/24 11:59:01;;;;;;;4.40;2.08;;;8.50;99.90;;;;;;5015007;28;20442;-73
2021/12/24 12:01:36;;;;;;;8.73;2.88;;;8.50;99.90;;;;;;4999143;28;20038;-73
2021/12/24 12:04:15;;;;;;;5.47;2.00;;;8.50;99.90;;;;;;5025566;28;20028;-76
2021/12/24 12:06:41;;;;;;;2.75;1.38;;;8.50;99.90;;;;;;5033081;28;20037;-73
2021/12/24 12:09:10;;;;;;;2.72;0.80;;;8.50;99.90;;;;;;5030697;28;20083;-73
2021/12/24 12:11:39;;;;;;;2.60;0.88;;;8.50;99.90;;;;;;5029011;28;20108;-75
2021/12/24 12:14:27;;;;;;;3.42;1.20;;;8.50;99.90;;;;;;5029159;28;20033;-73
2021/12/24 12:16:57;;;;;;;3.17;1.30;;;8.50;99.90;;;;;;5022615;28;20083;-73
2021/12/24 12:25:00;;;;;;;1.67;0.77;;;8.50;99.90;;;;;;5026850;28;20026;-76
2021/12/24 12:27:57;;;;;;;1.88;0.90;;;8.50;99.90;;;;;;5023690;28;20067;-76
2021/12/24 12:30:39;;;;;;;2.22;1.20;;;8.50;99.90;;;;;;5026583;28;20021;-75
2021/12/24 12:33:12;;;;;;;2.17;0.98;;;8.50;99.90;;;;;;5015168;28;20037;-75
2021/12/24 12:35:41;;;;;;;4.38;1.67;;;8.50;99.90;;;;;;5032457;28;20265;-75
2021/12/24 12:38:39;;;;;;;3.22;1.10;;;8.50;99.90;;;;;;5031726;28;20026;-76
2021/12/24 12:41:33;;;;;;;2.90;1.33;;;8.50;99.90;;;;;;5024674;28;20097;-75
2021/12/24 12:44:02;;;;;;;2.33;1.63;;;8.60;99.90;;;;;;5033901;28;20100;-75
2021/12/24 12:46:32;;;;;;;2.05;1.00;;;8.50;99.90;;;;;;5033819;28;20033;-75
2021/12/24 12:49:00;;;;;;;4.15;1.45;;;8.60;99.90;;;;;;5019971;28;20033;-75
2021/12/24 12:51:59;;;;;;;2.90;1.45;;;8.60;99.90;;;;;;5035420;28;20109;-75
2021/12/24 12:54:33;;;;;;;1.90;1.05;;;8.60;99.90;;;;;;5004981;28;20113;-76
2021/12/24 12:57:08;;;;;;;1.92;1.17;;;8.60;99.90;;;;;;5021970;28;20028;-75
2021/12/24 12:59:34;;;;;;;2.58;1.00;;;8.60;99.90;;;;;;5039306;28;20142;-75
2021/12/24 13:02:01;;;;;;;2.25;0.90;;;8.70;99.90;;;;;;5038256;28;20021;-75
2021/12/24 13:04:27;;;;;;;3.67;1.13;;;8.70;99.90;;;;;;5021559;28;20026;-74
2021/12/24 13:06:54;;;;;;;4.50;1.17;;;8.70;99.90;;;;;;5036365;28;20039;-75
2021/12/24 13:09:29;;;;;;;2.35;1.20;;;8.70;99.90;;;;;;5017813;28;20470;-75
2021/12/24 13:11:55;;;;;;;3.20;1.38;;;8.70;99.90;;;;;;5018498;28;20471;-75
2021/12/24 13:14:24;;;;;;;4.40;1.30;;;8.70;99.90;;;;;;5034773;28;20029;-75
2021/12/24 13:22:32;;;;;;;4.05;1.30;;;8.70;99.90;;;;;;5032679;28;20036;-75
2021/12/24 13:24:59;;;;;;;2.55;1.40;;;8.70;99.90;;;;;;5008691;28;20129;-75
2021/12/24 13:27:37;;;;;;;3.58;1.30;;;8.70;99.90;;;;;;5030911;28;20040;-74
2021/12/24 13:30:32;;;;;;;1.42;1.05;;;8.70;99.90;;;;;;5018299;28;20486;-75
2021/12/24 13:33:07;;;;;;;1.60;1.20;;;8.70;99.90;;;;;;5005850;28;20033;-75
2021/12/24 13:35:38;;;;;;;2.45;1.27;;;8.70;99.90;;;;;;5026339;28;20034;-75
2021/12/24 13:38:04;;;;;;;3.00;1.23;;;8.80;99.90;;;;;;5022315;28;20033;-75
2021/12/24 13:40:34;;;;;;;2.00;1.10;;;8.80;99.90;;;;;;5034023;28;20021;-75
2021/12/24 13:43:06;;;;;;;2.25;1.10;;;8.80;99.90;;;;;;5035825;28;20462;-75
2021/12/24 13:45:36;;;;;;;2.38;1.27;;;8.80;99.90;;;;;;5022851;28;20025;-75
2021/12/24 13:48:19;;;;;;;3.22;1.30;;;8.80;99.90;;;;;;5031819;28;20021;-74
2021/12/24 13:56:39;;;;;;;1.77;0.82;;;8.80;99.90;;;;;;5034344;28;20040;-75
2021/12/24 13:59:05;;;;;;;3.05;1.10;;;8.90;99.90;;;;;;5029781;28;20029;-76
2021/12/24 14:01:33;;;;;;;1.70;0.75;;;8.90;99.90;;;;;;5035131;28;20056;-76
2021/12/24 14:04:01;;;;;;;2.72;0.95;;;8.80;99.90;;;;;;5035019;28;20072;-75
2021/12/24 14:06:39;;;;;;;1.10;0.55;;;8.80;99.90;;;;;;5011701;28;20118;-76
2021/12/24 14:09:11;;;;;;;2.80;0.98;;;8.90;99.90;;;;;;5032407;28;20034;-75
2021/12/24 14:11:38;;;;;;;1.58;0.95;;;8.90;99.90;;;;;;5033146;28;20382;-76
2021/12/24 14:14:10;;;;;;;2.03;0.60;;;8.90;99.90;;;;;;5033344;28;20021;-76
2021/12/24 14:19:15;;;;;;;2.38;0.88;;;8.90;99.90;;;;;;5030362;28;20044;-76
2021/12/24 14:21:46;;;;;;;1.42;1.00;;;8.80;99.90;;;;;;5039953;28;20021;-76
2021/12/24 14:24:27;;;;;;;1.70;0.80;;;8.80;99.90;;;;;;5023038;28;20052;-76
2021/12/24 14:27:10;;;;;;;1.20;0.70;;;8.80;99.90;;;;;;5032069;28;20032;-75
2021/12/24 14:29:42;;;;;;;2.00;0.80;;;8.80;99.90;;;;;;5034709;28;20061;-76
2021/12/24 14:32:13;;;;;;;3.28;1.00;;;8.80;99.90;;;;;;5017827;28;20033;-76
2021/12/24 14:34:52;;;;;;;3.40;1.17;;;8.80;99.90;;;;;;5028184;28;20099;-75
2021/12/24 14:37:19;;;;;;;2.38;1.33;;;8.80;99.90;;;;;;5016132;28;20115;-75
2021/12/24 14:39:57;;;;;;;3.38;1.25;;;8.70;99.90;;;;;;5008765;28;20026;-74
2021/12/24 14:42:26;;;;;;;4.68;1.40;;;8.70;99.90;;;;;;5025777;28;20028;-72
2021/12/24 14:44:56;;;;;;;4.15;2.03;;;8.70;99.90;;;;;;5030688;28;20053;-73
2021/12/24 14:47:25;;;;;;;4.53;1.50;;;8.70;99.90;;;;;;5029735;28;20026;-71
2021/12/24 14:50:00;;;;;;;4.60;2.00;;;8.60;99.90;;;;;;5014951;28;20026;-73
2021/12/24 14:52:27;;;;;;;3.90;1.65;;;8.60;99.90;;;;;;5025872;28;20025;-76
2021/12/24 14:55:16;;;;;;;2.65;1.63;;;8.60;99.90;;;;;;5026566;28;20095;-73
2021/12/24 14:57:55;;;;;;;16.92;2.97;;;8.50;99.90;;;;;;5029632;28;20052;-71
2021/12/24 15:00:31;;;;;;;31.83;4.60;;;8.50;99.90;;;;;;5028349;28;20087;-73
2021/12/24 15:03:01;;;;;;;29.95;4.28;;;8.50;99.90;;;;;;5028579;28;20025;-73
2021/12/24 15:05:34;;;;;;;22.35;2.97;;;8.50;99.90;;;;;;5017497;28;20120;-74
2021/12/24 15:08:18;;;;;;;6.82;2.00;;;8.50;99.90;;;;;;5028308;28;20029;-72